sensor_id;sensor_type;location;lat;lon;timestamp;temperature;humidity
546;DHT22;259;53.304;9.816;2023-12-07T00:00:51;11.70;76.50
546;DHT22;259;53.304;9.816;2023-12-07T00:03:16;11.70;76.20
546;DHT22;259;53.304;9.816;2023-12-07T00:05:42;11.70;76.30
546;DHT22;259;53.304;9.816;2023-12-07T00:08:10;11.60;76.20
546;DHT22;259;53.304;9.816;2023-12-07T00:10:36;11.60;76.20
546;DHT22;259;53.304;9.816;2023-12-07T00:13:02;11.60;76.30
546;DHT22;259;53.304;9.816;2023-12-07T00:15:28;11.60;76.50
546;DHT22;259;53.304;9.816;2023-12-07T00:17:53;11.60;76.50
546;DHT22;259;53.304;9.816;2023-12-07T00:20:19;11.50;76.60
546;DHT22;259;53.304;9.816;2023-12-07T00:22:45;11.50;76.70
546;DHT22;259;53.304;9.816;2023-12-07T00:25:11;11.50;76.60
546;DHT22;259;53.304;9.816;2023-12-07T00:27:36;11.50;76.90
546;DHT22;259;53.304;9.816;2023-12-07T00:30:02;11.50;76.90
546;DHT22;259;53.304;9.816;2023-12-07T00:32:28;11.50;77.00
546;DHT22;259;53.304;9.816;2023-12-07T00:34:54;11.40;76.90
546;DHT22;259;53.304;9.816;2023-12-07T00:37:20;11.40;77.00
546;DHT22;259;53.304;9.816;2023-12-07T00:39:46;11.40;77.00
546;DHT22;259;53.304;9.816;2023-12-07T00:42:12;11.40;77.00
546;DHT22;259;53.304;9.816;2023-12-07T00:44:41;11.40;77.00
546;DHT22;259;53.304;9.816;2023-12-07T00:47:07;11.40;77.00
546;DHT22;259;53.304;9.816;2023-12-07T00:49:33;11.30;77.10
546;DHT22;259;53.304;9.816;2023-12-07T00:51:59;11.30;77.10
546;DHT22;259;53.304;9.816;2023-12-07T00:54:24;11.30;77.30
546;DHT22;259;53.304;9.816;2023-12-07T00:56:50;11.30;77.30
546;DHT22;259;53.304;9.816;2023-12-07T00:59:16;11.30;77.40
546;DHT22;259;53.304;9.816;2023-12-07T01:01:42;11.30;77.60
546;DHT22;259;53.304;9.816;2023-12-07T01:04:07;11.20;77.40
546;DHT22;259;53.304;9.816;2023-12-07T01:06:33;11.20;77.50
546;DHT22;259;53.304;9.816;2023-12-07T01:08:59;11.20;77.70
546;DHT22;259;53.304;9.816;2023-12-07T01:11:25;11.20;77.70
546;DHT22;259;53.304;9.816;2023-12-07T01:13:50;11.20;78.00
546;DHT22;259;53.304;9.816;2023-12-07T01:16:16;11.10;77.60
546;DHT22;259;53.304;9.816;2023-12-07T01:18:42;11.10;78.10
546;DHT22;259;53.304;9.816;2023-12-07T01:21:07;11.10;77.80
546;DHT22;259;53.304;9.816;2023-12-07T01:23:33;11.10;77.80
546;DHT22;259;53.304;9.816;2023-12-07T01:25:59;11.10;77.70
546;DHT22;259;53.304;9.816;2023-12-07T01:28:27;11.10;78.00
546;DHT22;259;53.304;9.816;2023-12-07T01:30:53;11.10;78.20
546;DHT22;259;53.304;9.816;2023-12-07T01:33:20;11.10;78.30
546;DHT22;259;53.304;9.816;2023-12-07T01:35:45;11.00;78.40
546;DHT22;259;53.304;9.816;2023-12-07T01:38:11;11.00;78.40
546;DHT22;259;53.304;9.816;2023-12-07T01:40:37;11.00;78.60
546;DHT22;259;53.304;9.816;2023-12-07T01:43:03;11.00;78.40
546;DHT22;259;53.304;9.816;2023-12-07T01:45:29;11.00;78.30
546;DHT22;259;53.304;9.816;2023-12-07T01:47:55;11.00;78.50
546;DHT22;259;53.304;9.816;2023-12-07T01:50:23;10.90;78.50
546;DHT22;259;53.304;9.816;2023-12-07T01:52:52;10.90;78.60
546;DHT22;259;53.304;9.816;2023-12-07T01:55:20;10.90;78.50
546;DHT22;259;53.304;9.816;2023-12-07T01:57:47;10.90;78.60
546;DHT22;259;53.304;9.816;2023-12-07T02:00:15;10.90;79.10
546;DHT22;259;53.304;9.816;2023-12-07T02:02:41;10.90;78.90
546;DHT22;259;53.304;9.816;2023-12-07T02:05:09;10.90;78.90
546;DHT22;259;53.304;9.816;2023-12-07T02:07:35;10.80;78.70
546;DHT22;259;53.304;9.816;2023-12-07T02:10:00;10.80;79.10
546;DHT22;259;53.304;9.816;2023-12-07T02:12:26;10.80;78.70
546;DHT22;259;53.304;9.816;2023-12-07T02:14:55;10.90;79.10
546;DHT22;259;53.304;9.816;2023-12-07T02:23:04;10.80;79.20
546;DHT22;259;53.304;9.816;2023-12-07T02:25:44;10.80;79.20
546;DHT22;259;53.304;9.816;2023-12-07T02:28:14;10.80;79.30
546;DHT22;259;53.304;9.816;2023-12-07T02:30:40;10.80;79.20
546;DHT22;259;53.304;9.816;2023-12-07T02:33:06;10.70;79.10
546;DHT22;259;53.304;9.816;2023-12-07T02:35:32;10.70;79.20
546;DHT22;259;53.304;9.816;2023-12-07T02:37:58;10.70;79.00
546;DHT22;259;53.304;9.816;2023-12-07T02:40:26;10.70;79.20
546;DHT22;259;53.304;9.816;2023-12-07T02:42:54;10.70;79.50
546;DHT22;259;53.304;9.816;2023-12-07T02:45:20;10.70;79.60
546;DHT22;259;53.304;9.816;2023-12-07T02:47:46;10.60;79.40
546;DHT22;259;53.304;9.816;2023-12-07T02:50:12;10.60;79.50
546;DHT22;259;53.304;9.816;2023-12-07T02:52:38;10.60;79.50
546;DHT22;259;53.304;9.816;2023-12-07T02:55:04;10.60;79.70
546;DHT22;259;53.304;9.816;2023-12-07T02:57:30;10.60;79.80
546;DHT22;259;53.304;9.816;2023-12-07T02:59:59;10.60;80.10
546;DHT22;259;53.304;9.816;2023-12-07T03:02:24;10.60;79.90
546;DHT22;259;53.304;9.816;2023-12-07T03:04:50;10.60;79.90
546;DHT22;259;53.304;9.816;2023-12-07T03:07:16;10.50;79.80
546;DHT22;259;53.304;9.816;2023-12-07T03:09:42;10.50;80.10
546;DHT22;259;53.304;9.816;2023-12-07T03:12:08;10.50;80.20
546;DHT22;259;53.304;9.816;2023-12-07T03:14:33;10.50;80.30
546;DHT22;259;53.304;9.816;2023-12-07T03:16:59;10.50;79.90
546;DHT22;259;53.304;9.816;2023-12-07T03:19:25;10.50;80.10
546;DHT22;259;53.304;9.816;2023-12-07T03:21:50;10.50;80.20
546;DHT22;259;53.304;9.816;2023-12-07T03:24:16;10.40;80.80
546;DHT22;259;53.304;9.816;2023-12-07T03:26:42;10.40;80.40
546;DHT22;259;53.304;9.816;2023-12-07T03:29:07;10.40;80.30
546;DHT22;259;53.304;9.816;2023-12-07T03:31:33;10.40;80.50
546;DHT22;259;53.304;9.816;2023-12-07T03:33:59;10.40;80.70
546;DHT22;259;53.304;9.816;2023-12-07T03:36:27;10.40;80.60
546;DHT22;259;53.304;9.816;2023-12-07T03:38:53;10.30;80.70
546;DHT22;259;53.304;9.816;2023-12-07T03:41:18;10.30;80.70
546;DHT22;259;53.304;9.816;2023-12-07T03:43:44;10.30;80.70
546;DHT22;259;53.304;9.816;2023-12-07T03:46:10;10.30;80.80
546;DHT22;259;53.304;9.816;2023-12-07T03:48:36;10.30;80.80
546;DHT22;259;53.304;9.816;2023-12-07T03:51:01;10.30;81.30
546;DHT22;259;53.304;9.816;2023-12-07T03:53:28;10.20;80.80
546;DHT22;259;53.304;9.816;2023-12-07T03:55:53;10.30;80.90
546;DHT22;259;53.304;9.816;2023-12-07T03:58:20;10.20;81.00
546;DHT22;259;53.304;9.816;2023-12-07T04:00:46;10.20;80.80
546;DHT22;259;53.304;9.816;2023-12-07T04:03:11;10.20;80.70
546;DHT22;259;53.304;9.816;2023-12-07T04:05:38;10.20;81.00
546;DHT22;259;53.304;9.816;2023-12-07T04:08:03;10.20;81.10
546;DHT22;259;53.304;9.816;2023-12-07T04:10:32;10.20;81.00
546;DHT22;259;53.304;9.816;2023-12-07T04:12:58;10.20;81.30
546;DHT22;259;53.304;9.816;2023-12-07T04:15:23;10.10;81.00
546;DHT22;259;53.304;9.816;2023-12-07T04:17:50;10.10;81.20
546;DHT22;259;53.304;9.816;2023-12-07T04:20:15;10.10;81.20
546;DHT22;259;53.304;9.816;2023-12-07T04:22:42;10.10;81.30
546;DHT22;259;53.304;9.816;2023-12-07T04:25:09;10.10;81.30
546;DHT22;259;53.304;9.816;2023-12-07T04:27:35;10.10;81.50
546;DHT22;259;53.304;9.816;2023-12-07T04:30:01;10.10;81.20
546;DHT22;259;53.304;9.816;2023-12-07T04:32:26;10.00;81.60
546;DHT22;259;53.304;9.816;2023-12-07T04:34:52;10.00;82.10
546;DHT22;259;53.304;9.816;2023-12-07T04:37:19;10.00;81.40
546;DHT22;259;53.304;9.816;2023-12-07T04:39:44;10.00;81.50
546;DHT22;259;53.304;9.816;2023-12-07T04:42:10;10.00;81.20
546;DHT22;259;53.304;9.816;2023-12-07T04:44:35;10.00;81.50
546;DHT22;259;53.304;9.816;2023-12-07T04:47:01;10.00;81.50
546;DHT22;259;53.304;9.816;2023-12-07T04:49:27;10.00;81.50
546;DHT22;259;53.304;9.816;2023-12-07T04:51:53;10.00;81.70
546;DHT22;259;53.304;9.816;2023-12-07T04:54:18;9.90;83.00
546;DHT22;259;53.304;9.816;2023-12-07T04:56:44;9.90;83.00
546;DHT22;259;53.304;9.816;2023-12-07T04:59:10;9.90;83.20
546;DHT22;259;53.304;9.816;2023-12-07T05:01:36;9.90;83.10
546;DHT22;259;53.304;9.816;2023-12-07T05:04:03;9.90;83.70
546;DHT22;259;53.304;9.816;2023-12-07T05:06:32;9.90;83.30
546;DHT22;259;53.304;9.816;2023-12-07T05:08:58;9.90;83.30
546;DHT22;259;53.304;9.816;2023-12-07T05:11:24;9.90;83.50
546;DHT22;259;53.304;9.816;2023-12-07T05:13:50;9.90;83.30
546;DHT22;259;53.304;9.816;2023-12-07T05:16:15;9.80;83.40
546;DHT22;259;53.304;9.816;2023-12-07T05:18:41;9.80;83.40
546;DHT22;259;53.304;9.816;2023-12-07T05:21:07;9.80;83.70
546;DHT22;259;53.304;9.816;2023-12-07T05:23:33;9.80;83.40
546;DHT22;259;53.304;9.816;2023-12-07T05:25:59;9.80;83.90
546;DHT22;259;53.304;9.816;2023-12-07T05:28:25;9.80;83.40
546;DHT22;259;53.304;9.816;2023-12-07T05:30:52;9.80;83.80
546;DHT22;259;53.304;9.816;2023-12-07T05:33:18;9.80;83.70
546;DHT22;259;53.304;9.816;2023-12-07T05:35:47;9.80;84.20
546;DHT22;259;53.304;9.816;2023-12-07T05:38:12;9.70;83.80
546;DHT22;259;53.304;9.816;2023-12-07T05:40:38;9.70;83.80
546;DHT22;259;53.304;9.816;2023-12-07T05:43:04;9.80;84.20
546;DHT22;259;53.304;9.816;2023-12-07T05:45:30;9.70;84.10
546;DHT22;259;53.304;9.816;2023-12-07T05:47:55;9.70;84.10
546;DHT22;259;53.304;9.816;2023-12-07T05:50:21;9.70;84.00
546;DHT22;259;53.304;9.816;2023-12-07T05:52:47;9.70;84.10
546;DHT22;259;53.304;9.816;2023-12-07T05:55:13;9.70;84.20
546;DHT22;259;53.304;9.816;2023-12-07T05:57:39;9.60;84.00
546;DHT22;259;53.304;9.816;2023-12-07T06:00:06;9.60;83.90
546;DHT22;259;53.304;9.816;2023-12-07T06:02:35;9.60;84.60
546;DHT22;259;53.304;9.816;2023-12-07T06:05:02;9.60;84.10
546;DHT22;259;53.304;9.816;2023-12-07T06:07:31;9.60;84.10
546;DHT22;259;53.304;9.816;2023-12-07T06:09:56;9.60;83.90
546;DHT22;259;53.304;9.816;2023-12-07T06:12:22;9.60;84.20
546;DHT22;259;53.304;9.816;2023-12-07T06:14:48;9.60;84.10
546;DHT22;259;53.304;9.816;2023-12-07T06:17:14;9.60;84.30
546;DHT22;259;53.304;9.816;2023-12-07T06:19:40;9.60;84.40
546;DHT22;259;53.304;9.816;2023-12-07T06:22:06;9.60;84.40
546;DHT22;259;53.304;9.816;2023-12-07T06:24:32;9.50;84.20
546;DHT22;259;53.304;9.816;2023-12-07T06:26:58;9.50;84.30
546;DHT22;259;53.304;9.816;2023-12-07T06:29:24;9.50;84.20
546;DHT22;259;53.304;9.816;2023-12-07T06:31:50;9.50;84.50
546;DHT22;259;53.304;9.816;2023-12-07T06:34:16;9.50;84.40
546;DHT22;259;53.304;9.816;2023-12-07T06:36:41;9.50;84.70
546;DHT22;259;53.304;9.816;2023-12-07T06:39:07;9.50;84.90
546;DHT22;259;53.304;9.816;2023-12-07T06:41:33;9.50;84.80
546;DHT22;259;53.304;9.816;2023-12-07T06:43:59;9.50;85.60
546;DHT22;259;53.304;9.816;2023-12-07T06:46:25;9.40;84.80
546;DHT22;259;53.304;9.816;2023-12-07T06:48:50;9.40;84.80
546;DHT22;259;53.304;9.816;2023-12-07T06:51:16;9.40;85.00
546;DHT22;259;53.304;9.816;2023-12-07T06:53:42;9.40;85.00
546;DHT22;259;53.304;9.816;2023-12-07T06:56:08;9.40;85.00
546;DHT22;259;53.304;9.816;2023-12-07T06:58:34;9.40;84.70
546;DHT22;259;53.304;9.816;2023-12-07T07:01:00;9.40;84.80
546;DHT22;259;53.304;9.816;2023-12-07T07:03:26;9.40;85.20
546;DHT22;259;53.304;9.816;2023-12-07T07:05:54;9.40;85.20
546;DHT22;259;53.304;9.816;2023-12-07T07:08:20;9.30;85.20
546;DHT22;259;53.304;9.816;2023-12-07T07:10:45;9.30;85.20
546;DHT22;259;53.304;9.816;2023-12-07T07:13:14;9.30;85.10
546;DHT22;259;53.304;9.816;2023-12-07T07:15:44;9.30;85.00
546;DHT22;259;53.304;9.816;2023-12-07T07:18:10;9.30;85.00
546;DHT22;259;53.304;9.816;2023-12-07T07:20:36;9.30;85.30
546;DHT22;259;53.304;9.816;2023-12-07T07:23:02;9.30;85.10
546;DHT22;259;53.304;9.816;2023-12-07T07:25:27;9.30;85.20
546;DHT22;259;53.304;9.816;2023-12-07T07:27:53;9.30;85.30
546;DHT22;259;53.304;9.816;2023-12-07T07:30:20;9.30;85.30
546;DHT22;259;53.304;9.816;2023-12-07T07:32:47;9.30;85.30
546;DHT22;259;53.304;9.816;2023-12-07T07:35:12;9.30;85.30
546;DHT22;259;53.304;9.816;2023-12-07T07:37:39;9.30;85.40
546;DHT22;259;53.304;9.816;2023-12-07T07:40:05;9.30;85.30
546;DHT22;259;53.304;9.816;2023-12-07T07:42:33;9.30;85.40
546;DHT22;259;53.304;9.816;2023-12-07T07:44:59;9.20;85.40
546;DHT22;259;53.304;9.816;2023-12-07T07:47:24;9.20;85.40
546;DHT22;259;53.304;9.816;2023-12-07T07:49:50;9.20;85.40
546;DHT22;259;53.304;9.816;2023-12-07T07:52:16;9.20;85.40
546;DHT22;259;53.304;9.816;2023-12-07T07:54:42;9.20;85.50
546;DHT22;259;53.304;9.816;2023-12-07T07:57:08;9.20;85.50
546;DHT22;259;53.304;9.816;2023-12-07T07:59:34;9.20;85.60
546;DHT22;259;53.304;9.816;2023-12-07T08:01:59;9.20;85.70
546;DHT22;259;53.304;9.816;2023-12-07T08:04:25;9.10;85.60
546;DHT22;259;53.304;9.816;2023-12-07T08:06:51;9.20;85.60
546;DHT22;259;53.304;9.816;2023-12-07T08:09:16;9.10;85.60
546;DHT22;259;53.304;9.816;2023-12-07T08:11:42;10.00;85.40
546;DHT22;259;53.304;9.816;2023-12-07T08:14:08;9.10;85.60
546;DHT22;259;53.304;9.816;2023-12-07T08:16:34;9.10;85.70
546;DHT22;259;53.304;9.816;2023-12-07T08:19:00;9.10;85.70
546;DHT22;259;53.304;9.816;2023-12-07T08:21:25;9.10;85.70
546;DHT22;259;53.304;9.816;2023-12-07T08:23:51;9.10;85.70
546;DHT22;259;53.304;9.816;2023-12-07T08:26:17;9.10;85.70
546;DHT22;259;53.304;9.816;2023-12-07T08:28:43;9.10;85.70
546;DHT22;259;53.304;9.816;2023-12-07T08:31:10;9.10;85.80
546;DHT22;259;53.304;9.816;2023-12-07T08:33:36;9.10;85.90
546;DHT22;259;53.304;9.816;2023-12-07T08:36:05;9.10;85.90
546;DHT22;259;53.304;9.816;2023-12-07T08:38:31;9.10;85.90
546;DHT22;259;53.304;9.816;2023-12-07T08:40:57;9.00;86.10
546;DHT22;259;53.304;9.816;2023-12-07T08:43:24;9.00;86.00
546;DHT22;259;53.304;9.816;2023-12-07T08:45:52;9.00;85.90
546;DHT22;259;53.304;9.816;2023-12-07T08:48:22;9.00;86.10
546;DHT22;259;53.304;9.816;2023-12-07T08:50:48;9.00;86.00
546;DHT22;259;53.304;9.816;2023-12-07T08:53:13;9.00;86.10
546;DHT22;259;53.304;9.816;2023-12-07T08:55:39;9.00;86.20
546;DHT22;259;53.304;9.816;2023-12-07T08:58:05;9.00;86.30
546;DHT22;259;53.304;9.816;2023-12-07T09:00:32;9.00;86.10
546;DHT22;259;53.304;9.816;2023-12-07T09:02:58;9.00;86.10
546;DHT22;259;53.304;9.816;2023-12-07T09:05:27;9.00;86.20
546;DHT22;259;53.304;9.816;2023-12-07T09:07:53;9.00;86.90
546;DHT22;259;53.304;9.816;2023-12-07T09:10:19;9.00;86.30
546;DHT22;259;53.304;9.816;2023-12-07T09:12:45;9.00;86.30
546;DHT22;259;53.304;9.816;2023-12-07T09:15:11;8.90;86.30
546;DHT22;259;53.304;9.816;2023-12-07T09:17:40;9.00;86.30
546;DHT22;259;53.304;9.816;2023-12-07T09:20:10;8.90;86.40
546;DHT22;259;53.304;9.816;2023-12-07T09:22:46;8.90;86.30
546;DHT22;259;53.304;9.816;2023-12-07T09:25:15;8.90;86.30
546;DHT22;259;53.304;9.816;2023-12-07T09:27:41;8.90;86.30
546;DHT22;259;53.304;9.816;2023-12-07T09:30:10;8.90;86.30
546;DHT22;259;53.304;9.816;2023-12-07T09:32:37;8.90;86.30
546;DHT22;259;53.304;9.816;2023-12-07T09:35:05;8.90;86.30
546;DHT22;259;53.304;9.816;2023-12-07T09:37:32;8.90;86.60
546;DHT22;259;53.304;9.816;2023-12-07T09:40:01;8.90;86.50
546;DHT22;259;53.304;9.816;2023-12-07T09:42:27;8.90;86.30
546;DHT22;259;53.304;9.816;2023-12-07T09:44:54;8.90;86.40
546;DHT22;259;53.304;9.816;2023-12-07T09:47:20;8.90;86.60
546;DHT22;259;53.304;9.816;2023-12-07T09:49:45;8.80;86.40
546;DHT22;259;53.304;9.816;2023-12-07T09:52:11;8.90;86.50
546;DHT22;259;53.304;9.816;2023-12-07T09:54:40;8.80;86.40
546;DHT22;259;53.304;9.816;2023-12-07T09:57:07;8.80;86.40
546;DHT22;259;53.304;9.816;2023-12-07T09:59:35;8.80;86.40
546;DHT22;259;53.304;9.816;2023-12-07T10:02:01;8.80;86.50
546;DHT22;259;53.304;9.816;2023-12-07T10:04:27;8.80;86.50
546;DHT22;259;53.304;9.816;2023-12-07T10:06:53;8.80;86.50
546;DHT22;259;53.304;9.816;2023-12-07T10:09:22;8.80;86.70
546;DHT22;259;53.304;9.816;2023-12-07T10:11:48;8.80;86.70
546;DHT22;259;53.304;9.816;2023-12-07T10:14:14;8.80;86.70
546;DHT22;259;53.304;9.816;2023-12-07T10:16:53;8.80;86.80
546;DHT22;259;53.304;9.816;2023-12-07T10:19:23;8.80;86.80
546;DHT22;259;53.304;9.816;2023-12-07T10:21:50;8.80;86.80
546;DHT22;259;53.304;9.816;2023-12-07T10:24:18;8.80;86.70
546;DHT22;259;53.304;9.816;2023-12-07T10:26:45;8.80;86.70
546;DHT22;259;53.304;9.816;2023-12-07T10:29:11;8.80;86.80
546;DHT22;259;53.304;9.816;2023-12-07T10:31:37;8.80;86.80
546;DHT22;259;53.304;9.816;2023-12-07T10:34:04;8.80;86.90
546;DHT22;259;53.304;9.816;2023-12-07T10:36:30;8.80;86.90
546;DHT22;259;53.304;9.816;2023-12-07T10:38:57;8.70;86.80
546;DHT22;259;53.304;9.816;2023-12-07T10:41:24;8.70;86.80
546;DHT22;259;53.304;9.816;2023-12-07T10:43:54;8.80;87.00
546;DHT22;259;53.304;9.816;2023-12-07T10:46:23;8.70;87.00
546;DHT22;259;53.304;9.816;2023-12-07T10:48:59;8.70;87.00
546;DHT22;259;53.304;9.816;2023-12-07T10:51:38;8.70;87.00
546;DHT22;259;53.304;9.816;2023-12-07T10:54:07;8.70;87.20
546;DHT22;259;53.304;9.816;2023-12-07T10:56:44;8.70;87.10
546;DHT22;259;53.304;9.816;2023-12-07T10:59:11;8.70;87.20
546;DHT22;259;53.304;9.816;2023-12-07T11:01:42;8.70;87.00
546;DHT22;259;53.304;9.816;2023-12-07T11:04:12;8.70;87.10
546;DHT22;259;53.304;9.816;2023-12-07T11:06:44;8.70;87.40
546;DHT22;259;53.304;9.816;2023-12-07T11:09:23;8.70;87.30
546;DHT22;259;53.304;9.816;2023-12-07T11:12:13;8.70;87.40
546;DHT22;259;53.304;9.816;2023-12-07T11:14:43;8.70;87.30
546;DHT22;259;53.304;9.816;2023-12-07T11:17:09;8.70;87.50
546;DHT22;259;53.304;9.816;2023-12-07T11:22:11;8.60;87.30
546;DHT22;259;53.304;9.816;2023-12-07T11:24:38;8.60;87.30
546;DHT22;259;53.304;9.816;2023-12-07T11:27:05;8.60;87.20
546;DHT22;259;53.304;9.816;2023-12-07T11:29:32;8.60;87.30
546;DHT22;259;53.304;9.816;2023-12-07T11:32:01;8.60;87.30
546;DHT22;259;53.304;9.816;2023-12-07T11:34:39;8.60;87.30
546;DHT22;259;53.304;9.816;2023-12-07T11:37:15;8.60;87.60
546;DHT22;259;53.304;9.816;2023-12-07T11:39:44;8.60;87.40
546;DHT22;259;53.304;9.816;2023-12-07T11:42:18;8.60;87.70
546;DHT22;259;53.304;9.816;2023-12-07T11:44:47;8.60;87.50
546;DHT22;259;53.304;9.816;2023-12-07T11:47:18;8.60;87.50
546;DHT22;259;53.304;9.816;2023-12-07T11:49:45;8.60;87.60
546;DHT22;259;53.304;9.816;2023-12-07T11:52:20;8.60;87.60
546;DHT22;259;53.304;9.816;2023-12-07T11:54:47;8.60;87.70
546;DHT22;259;53.304;9.816;2023-12-07T11:57:14;8.60;87.60
546;DHT22;259;53.304;9.816;2023-12-07T11:59:44;8.60;87.60
546;DHT22;259;53.304;9.816;2023-12-07T12:02:12;8.60;87.60
546;DHT22;259;53.304;9.816;2023-12-07T12:04:40;8.60;87.60
546;DHT22;259;53.304;9.816;2023-12-07T12:07:06;8.60;87.70
546;DHT22;259;53.304;9.816;2023-12-07T12:09:32;8.50;87.70
546;DHT22;259;53.304;9.816;2023-12-07T12:11:59;8.60;87.70
546;DHT22;259;53.304;9.816;2023-12-07T12:14:26;8.50;87.70
546;DHT22;259;53.304;9.816;2023-12-07T12:16:53;8.50;87.80
546;DHT22;259;53.304;9.816;2023-12-07T12:19:19;8.50;87.80
546;DHT22;259;53.304;9.816;2023-12-07T12:21:45;8.50;88.50
546;DHT22;259;53.304;9.816;2023-12-07T12:24:12;8.50;87.90
546;DHT22;259;53.304;9.816;2023-12-07T12:26:41;8.50;87.90
546;DHT22;259;53.304;9.816;2023-12-07T12:29:07;8.50;88.00
546;DHT22;259;53.304;9.816;2023-12-07T12:31:37;8.50;87.80
546;DHT22;259;53.304;9.816;2023-12-07T12:34:07;8.50;87.90
546;DHT22;259;53.304;9.816;2023-12-07T12:36:34;8.50;87.90
546;DHT22;259;53.304;9.816;2023-12-07T12:39:00;8.50;87.80
546;DHT22;259;53.304;9.816;2023-12-07T12:41:27;8.50;87.80
546;DHT22;259;53.304;9.816;2023-12-07T12:43:56;8.50;87.80
546;DHT22;259;53.304;9.816;2023-12-07T12:46:22;8.50;87.90
546;DHT22;259;53.304;9.816;2023-12-07T12:48:54;8.50;87.90
546;DHT22;259;53.304;9.816;2023-12-07T12:51:21;8.50;87.90
546;DHT22;259;53.304;9.816;2023-12-07T12:53:48;8.50;87.90
546;DHT22;259;53.304;9.816;2023-12-07T12:56:15;8.50;87.90
546;DHT22;259;53.304;9.816;2023-12-07T12:58:41;8.50;88.00
546;DHT22;259;53.304;9.816;2023-12-07T13:01:07;8.50;88.10
546;DHT22;259;53.304;9.816;2023-12-07T13:03:33;8.50;88.10
546;DHT22;259;53.304;9.816;2023-12-07T13:05:59;8.50;88.10
546;DHT22;259;53.304;9.816;2023-12-07T13:08:24;8.40;88.00
546;DHT22;259;53.304;9.816;2023-12-07T13:10:50;8.50;88.10
546;DHT22;259;53.304;9.816;2023-12-07T13:13:16;8.40;88.00
546;DHT22;259;53.304;9.816;2023-12-07T13:15:42;8.40;88.10
546;DHT22;259;53.304;9.816;2023-12-07T13:18:07;8.40;88.00
546;DHT22;259;53.304;9.816;2023-12-07T13:20:36;8.40;88.20
546;DHT22;259;53.304;9.816;2023-12-07T13:23:02;8.40;88.20
546;DHT22;259;53.304;9.816;2023-12-07T13:25:28;8.40;88.30
546;DHT22;259;53.304;9.816;2023-12-07T13:27:54;8.40;88.40
546;DHT22;259;53.304;9.816;2023-12-07T13:30:20;8.40;88.40
546;DHT22;259;53.304;9.816;2023-12-07T13:32:45;8.40;88.40
546;DHT22;259;53.304;9.816;2023-12-07T13:35:11;8.40;88.40
546;DHT22;259;53.304;9.816;2023-12-07T13:37:38;8.40;88.50
546;DHT22;259;53.304;9.816;2023-12-07T13:40:04;8.40;88.50
546;DHT22;259;53.304;9.816;2023-12-07T13:42:35;8.30;88.40
546;DHT22;259;53.304;9.816;2023-12-07T13:45:02;8.30;88.40
546;DHT22;259;53.304;9.816;2023-12-07T13:47:29;8.30;88.60
546;DHT22;259;53.304;9.816;2023-12-07T13:50:00;8.30;88.60
546;DHT22;259;53.304;9.816;2023-12-07T13:52:26;8.30;88.60
546;DHT22;259;53.304;9.816;2023-12-07T13:54:54;8.30;88.70
546;DHT22;259;53.304;9.816;2023-12-07T13:57:21;8.30;88.60
546;DHT22;259;53.304;9.816;2023-12-07T13:59:53;8.30;88.50
546;DHT22;259;53.304;9.816;2023-12-07T14:02:19;8.30;88.60
546;DHT22;259;53.304;9.816;2023-12-07T14:04:45;8.30;88.60
546;DHT22;259;53.304;9.816;2023-12-07T14:07:19;8.30;88.70
546;DHT22;259;53.304;9.816;2023-12-07T14:09:49;8.30;88.80
546;DHT22;259;53.304;9.816;2023-12-07T14:12:16;8.30;88.80
546;DHT22;259;53.304;9.816;2023-12-07T14:14:46;8.30;88.90
546;DHT22;259;53.304;9.816;2023-12-07T14:17:13;8.30;88.80
546;DHT22;259;53.304;9.816;2023-12-07T14:19:39;8.30;88.90
546;DHT22;259;53.304;9.816;2023-12-07T14:22:05;8.30;88.80
546;DHT22;259;53.304;9.816;2023-12-07T14:24:31;8.30;88.80
546;DHT22;259;53.304;9.816;2023-12-07T14:26:57;8.30;88.90
546;DHT22;259;53.304;9.816;2023-12-07T14:29:23;8.20;89.50
546;DHT22;259;53.304;9.816;2023-12-07T14:31:50;8.20;88.90
546;DHT22;259;53.304;9.816;2023-12-07T14:34:17;8.20;89.00
546;DHT22;259;53.304;9.816;2023-12-07T14:36:44;8.20;89.00
546;DHT22;259;53.304;9.816;2023-12-07T14:39:11;8.20;88.90
546;DHT22;259;53.304;9.816;2023-12-07T14:41:43;8.20;89.00
546;DHT22;259;53.304;9.816;2023-12-07T14:44:10;8.20;89.10
546;DHT22;259;53.304;9.816;2023-12-07T14:46:36;8.20;89.00
546;DHT22;259;53.304;9.816;2023-12-07T14:49:01;8.20;89.10
546;DHT22;259;53.304;9.816;2023-12-07T14:51:28;8.20;89.10
546;DHT22;259;53.304;9.816;2023-12-07T14:53:54;8.20;89.10
546;DHT22;259;53.304;9.816;2023-12-07T14:56:19;8.20;89.20
546;DHT22;259;53.304;9.816;2023-12-07T14:58:47;8.20;89.20
546;DHT22;259;53.304;9.816;2023-12-07T15:01:13;8.20;89.40
546;DHT22;259;53.304;9.816;2023-12-07T15:03:39;8.10;89.10
546;DHT22;259;53.304;9.816;2023-12-07T15:06:05;8.10;89.10
546;DHT22;259;53.304;9.816;2023-12-07T15:08:31;8.10;89.20
546;DHT22;259;53.304;9.816;2023-12-07T15:10:57;8.10;89.30
546;DHT22;259;53.304;9.816;2023-12-07T15:13:23;8.10;89.20
546;DHT22;259;53.304;9.816;2023-12-07T15:15:48;8.10;89.20
546;DHT22;259;53.304;9.816;2023-12-07T15:18:14;8.10;89.10
546;DHT22;259;53.304;9.816;2023-12-07T15:20:40;8.10;89.20
546;DHT22;259;53.304;9.816;2023-12-07T15:23:06;8.10;89.30
546;DHT22;259;53.304;9.816;2023-12-07T15:25:32;8.10;89.10
546;DHT22;259;53.304;9.816;2023-12-07T15:27:57;8.10;89.40
546;DHT22;259;53.304;9.816;2023-12-07T15:30:24;8.10;89.20
546;DHT22;259;53.304;9.816;2023-12-07T15:32:51;8.10;89.30
546;DHT22;259;53.304;9.816;2023-12-07T15:35:17;8.10;89.10
546;DHT22;259;53.304;9.816;2023-12-07T15:37:43;8.10;89.20
546;DHT22;259;53.304;9.816;2023-12-07T15:40:10;8.10;89.20
546;DHT22;259;53.304;9.816;2023-12-07T15:42:40;8.00;89.10
546;DHT22;259;53.304;9.816;2023-12-07T15:45:07;8.00;89.20
546;DHT22;259;53.304;9.816;2023-12-07T15:47:34;8.00;89.20
546;DHT22;259;53.304;9.816;2023-12-07T15:50:00;8.00;89.30
546;DHT22;259;53.304;9.816;2023-12-07T15:52:26;8.00;89.30
546;DHT22;259;53.304;9.816;2023-12-07T15:54:52;8.00;89.30
546;DHT22;259;53.304;9.816;2023-12-07T15:57:17;8.00;89.40
546;DHT22;259;53.304;9.816;2023-12-07T15:59:43;8.00;89.30
546;DHT22;259;53.304;9.816;2023-12-07T16:02:09;8.00;89.40
546;DHT22;259;53.304;9.816;2023-12-07T16:04:35;8.00;89.50
546;DHT22;259;53.304;9.816;2023-12-07T16:07:03;8.00;89.40
546;DHT22;259;53.304;9.816;2023-12-07T16:09:31;8.00;89.50
546;DHT22;259;53.304;9.816;2023-12-07T16:11:57;8.00;89.50
546;DHT22;259;53.304;9.816;2023-12-07T16:14:23;8.00;89.50
546;DHT22;259;53.304;9.816;2023-12-07T16:16:49;8.00;89.50
546;DHT22;259;53.304;9.816;2023-12-07T16:19:14;8.00;89.50
546;DHT22;259;53.304;9.816;2023-12-07T16:21:41;8.00;89.60
546;DHT22;259;53.304;9.816;2023-12-07T16:24:08;7.90;89.40
546;DHT22;259;53.304;9.816;2023-12-07T16:26:36;7.90;89.60
546;DHT22;259;53.304;9.816;2023-12-07T16:29:03;7.90;89.30
546;DHT22;259;53.304;9.816;2023-12-07T16:31:28;7.90;89.60
546;DHT22;259;53.304;9.816;2023-12-07T16:33:54;7.90;89.60
546;DHT22;259;53.304;9.816;2023-12-07T16:36:20;7.90;89.60
546;DHT22;259;53.304;9.816;2023-12-07T16:38:45;7.90;89.80
546;DHT22;259;53.304;9.816;2023-12-07T16:41:12;7.90;89.30
546;DHT22;259;53.304;9.816;2023-12-07T16:43:38;7.90;89.10
546;DHT22;259;53.304;9.816;2023-12-07T16:46:05;7.90;88.70
546;DHT22;259;53.304;9.816;2023-12-07T16:48:33;7.80;88.60
546;DHT22;259;53.304;9.816;2023-12-07T16:50:59;7.80;88.80